Terminal Aerodrome Forecast
Issued by NWS

Home | Current Version | Previous Version | Text Only | Print | Product List | Glossary On
Versions: 1 2 3 4 5 6 7 8 9 10 11 12 13 14 15 16 17 18 19 20 21
428
FTUS43 KDVN 140759 AAA
TAFCID
TAF AMD
KCID 140759Z 1408/1506 06007KT P6SM OVC050
     FM140900 04007KT P6SM BKN015 OVC040
     FM141300 34005KT P6SM SCT020 BKN150=

USA.gov is the U.S. government's official web portal to all federal, state and local government web resources and services.